Station info - map view · info · telemetry · weather · raw · status · beacons · messages · bulletins · browse · moving · my account
Callsign, ship name or locator: Clear       
It is possible to search using wildcards (*?) after a prefix. Example: OH*
APRS station KJ6WZE-4 - show graphs
Map loading...
Comment: Go Aggies!
Mic-E message: En route
Location: 37°23.23' N 122°15.45' W - locator CM87UJ92CW - show map - static map
6.1 miles Southwest bearing 213° from Atherton, San Mateo County, California, United States [?]
6.2 miles Southwest bearing 222° from Menlo Park, San Mateo County, California, United States
20.2 miles West bearing 280° from San Jose, Santa Clara County, California, United States
28.2 miles South bearing 162° from San Francisco, San Francisco County, California, United States
Last position: 2018-06-14 21:46:01 EDT (3d 11h21m ago)
2018-06-14 18:46:01 PDT local time at Atherton, United States [?]
Altitude: 1122 ft
Course: 105°
Device: Kenwood: TM-D700 (rig)
Last path: KJ6WZE-4>SW2SRS via WIDE1-1,WIDE2-1,qAR,W6SRR-3 (good)
Positions stored: 2321
Packet rate: 271 seconds between packets on average during 13284 seconds.
Other SSIDs: KJ6WZE-8
Stations near current position of KJ6WZE-4 - show more
callsign distance last heard - EDT      callsign distance last heard - EDT
EW26491.5 miles 35°2018-06-18 08:56:36 KG6JLE-72.2 miles 128°2018-06-11 15:48:53
psychon3.0 miles 22°2018-06-18 01:07:32 KH6JUZ-13.8 miles 51°2018-06-18 08:48:08
EW48254.2 miles 113°2018-06-07 20:26:22 EW55164.3 miles 42°2018-06-18 09:00:19
K6DJR4.3 miles 41°2018-06-18 08:59:32 KG6UWN-14.6 miles 184°2018-06-18 09:06:26
FW09454.7 miles 184°2018-06-18 09:02:38 EW69944.8 miles 108°2018-06-18 09:06:02
N6ZX-34.8 miles 314°2018-06-18 09:02:50 KC2YRZ-74.8 miles 52°2018-06-16 22:07:51
W6BSD-N5.0 miles 6°2018-06-03 00:36:35 AA6IW5.1 miles 105°2018-06-18 09:05:25
W6YX-55.2 miles 77°2018-06-17 04:37:51 EW48635.2 miles 308°2018-06-02 19:20:00
CW66235.2 miles 104°2018-06-18 09:04:12 EW54105.4 miles 6°2018-06-18 08:57:28
DW65755.7 miles 38°2018-06-18 08:57:24 EW05975.8 miles 68°2018-06-18 09:02:05
Stations which heard KJ6WZE-4 directly on radio –
callsign pkts first heard - EDT last heard longest (tx => rx) longest at - EDT
W6BXN-3 14 2018-06-14 18:53:11 2018-06-14 19:53:54 CM96UH > CM97XM 85.1 miles 8° 2018-06-14 18:53:11
K6TJS 6 2018-06-14 19:32:42 2018-06-14 19:47:50 CM96OU > CM97OB 14.4 miles 353° 2018-06-14 19:32:42
WR6ABD 1 2018-06-14 21:00:32 2018-06-14 21:00:32 CM97BG > CM97BC 10.4 miles 158° 2018-06-14 21:00:32
K6IXA-3 31 2018-06-14 16:00:17 2018-06-14 19:29:39 DM04MX > DM06NR 121.7 miles 2° 2018-06-14 16:00:17
K6JE-3 4 2018-06-14 20:18:08 2018-06-14 20:27:12 CM96FX > CM96FS 16.5 miles 180° 2018-06-14 20:27:12
W6CX-3 1 2018-06-14 21:06:37 2018-06-14 21:06:37 CM87XG > CM97BV 42.6 miles 9° 2018-06-14 21:06:37
KF6RAL-15 4 2018-06-14 15:02:35 2018-06-14 15:42:06 DM04RI > DM04PR 28.7 miles 340° 2018-06-14 15:02:35
W6SCE-10 2 2018-06-14 14:38:10 2018-06-14 14:59:32 DM04SE > DM04QH 13.5 miles 326° 2018-06-14 14:38:10
N6EX-1 2 2018-06-14 13:43:02 2018-06-14 13:49:06 DM03US > DM04XE 32.2 miles 26° 2018-06-14 13:43:02
N6EX-5 1 2018-06-14 13:52:12 2018-06-14 13:52:12 DM03UU > DM03TT 5.1 miles 224° 2018-06-14 13:52:12
N6EX-4 1 2018-06-14 14:53:27 2018-06-14 14:53:27 DM04RH > DM13CO 63.8 miles 141° 2018-06-14 14:53:27
WA6YLB-5 26 2018-06-14 15:57:13 2018-06-14 18:53:10 CM96UH > DM05RU 101.3 miles 108° 2018-06-14 18:53:10
NI6M-2 2 2018-06-14 17:22:10 2018-06-14 18:01:35 DM05AX > DM07HB 80.2 miles 22° 2018-06-14 18:01:35
N6ZX-3 3 2018-06-14 21:21:48 2018-06-14 21:43:00 CM87VK > CM87UK 5.6 miles 281° 2018-06-14 21:21:48
KA6PTJ-3 1 2018-06-14 17:03:51 2018-06-14 17:03:51 DM05CS > DM05SB 89.4 miles 124° 2018-06-14 17:03:51
KELLER 3 2018-06-14 13:40:00 2018-06-14 13:58:25 DM03UR > DM14LE 77.8 miles 66° 2018-06-14 13:40:00
N5CAT-12 1 2018-06-14 14:44:13 2018-06-14 14:44:13 DM04SG > DM04RG 4.0 miles 281° 2018-06-14 14:44:13
KW0RCA-2 4 2018-06-14 21:21:48 2018-06-14 21:36:57 CM87UJ > CM87XO 20.0 miles 44° 2018-06-14 21:36:57
N6ACK-11 1 2018-06-14 21:33:55 2018-06-14 21:33:55 CM87UJ > CM97AH 17.0 miles 104° 2018-06-14 21:33:55
K6RPT 1 2018-06-14 20:54:27 2018-06-14 20:54:27 CM97CF > CM97BG 4.9 miles 280° 2018-06-14 20:54:27
W6IA 1 2018-06-14 21:00:30 2018-06-14 21:00:30 CM97BG > CM97BG 1.6 miles 4° 2018-06-14 21:00:30
KH6L-3 1 2018-06-14 20:57:29 2018-06-14 20:57:29 CM97BG > CM97BE 4.3 miles 164° 2018-06-14 20:57:29
KF6NMZ-4 1 2018-06-14 14:50:24 2018-06-14 14:50:24 DM04RH > DM04SG 5.5 miles 152° 2018-06-14 14:50:24
W6SRR-3 3 2018-06-14 21:39:58 2018-06-14 21:46:01 CM87UJ > CM97AO 24.4 miles 49° 2018-06-14 21:46:01
AJ7C-10 4 2018-06-14 14:16:40 2018-06-14 14:25:57 DM03TX > DM04TA 2.4 miles 327° 2018-06-14 14:16:40
kd6lpa 1 2018-06-14 13:33:54 2018-06-14 13:33:54 DM03UR > DM03UT 5.4 miles 0° 2018-06-14 13:33:54
N6LXX-10 7 2018-06-14 14:01:30 2018-06-14 15:17:47 DM03TV > DM04UJ 33.9 miles 4° 2018-06-14 14:01:30

Only position packets which were originated by the station are shown here. The range statistics show some extra long hops, because some digipeaters do not correctly add themselves to the digipeater path. Please check the raw packets.
About this site
This page shows real-time information collected from the Automatic Position Reporting System Internet network (APRS-IS). APRS is used by amateur (ham) radio operators to transmit real-time position information, weather data, telemetry and messages over the radio. A vehicle equipped with a GPS receiver, a VHF transmitter or HF transceiver and a small computer device called a tracker transmits it's location, speed and course in a small data packet, which is then received by a nearby iGate receiving site which forwards the packet on the Internet. Systems connected to the Internet can send information on the APRS-IS without a radio transmitter, or collect and display information transmitted anywhere in the world.
FAQ · Blog · Discussion group · Linking to aprs.fi · AIS sites · Service status · Database statistics · Advertising on aprs.fi · Technical details · API · Change log · Planned changes · Credits and thanks · Terms Of Service · iPhone/iPad APRS